createdAt,value
2022-08-31T00:01:05.253Z,100263.42
2022-08-31T00:03:54.276Z,100262.56
2022-08-31T00:06:24.008Z,100264.48
2022-08-31T00:08:56.384Z,100271.45
2022-08-31T00:11:31.096Z,100258.60
2022-08-31T00:14:05.920Z,100265.83
2022-08-31T00:16:38.589Z,100267.48
2022-08-31T00:19:11.799Z,100269.69
2022-08-31T00:21:44.685Z,100266.63
2022-08-31T00:24:14.611Z,100270.23
2022-08-31T00:26:46.480Z,100272.72
2022-08-31T00:29:17.140Z,100266.00
2022-08-31T00:31:48.736Z,100267.09
2022-08-31T00:34:19.441Z,100270.13
2022-08-31T00:36:49.492Z,100267.33
2022-08-31T00:39:19.569Z,100265.04
2022-08-31T00:41:50.444Z,100261.13
2022-08-31T00:44:20.142Z,100261.69
2022-08-31T00:46:49.983Z,100261.39
2022-08-31T00:49:26.732Z,100265.28
2022-08-31T00:52:09.581Z,100259.44
2022-08-31T00:54:55.400Z,100273.31
2022-08-31T00:57:30.085Z,100271.06
2022-08-31T01:00:01.030Z,100269.67
2022-08-31T01:02:32.194Z,100267.16
2022-08-31T01:05:02.529Z,100268.55
2022-08-31T01:07:33.800Z,100271.02
2022-08-31T01:10:05.861Z,100268.78
2022-08-31T01:12:37.147Z,100271.27
2022-08-31T01:15:08.232Z,100275.73
2022-08-31T01:17:38.618Z,100270.44
2022-08-31T01:20:19.481Z,100278.48
2022-08-31T01:23:11.932Z,100275.70
2022-08-31T01:25:43.890Z,100272.64
2022-08-31T01:28:14.691Z,100272.03
2022-08-31T01:31:05.069Z,100281.22
2022-08-31T01:33:38.032Z,100281.19
2022-08-31T01:36:11.160Z,100274.80
2022-08-31T01:38:40.827Z,100276.99
2022-08-31T01:41:12.992Z,100276.99
2022-08-31T01:43:45.036Z,100270.83
2022-08-31T01:46:15.917Z,100266.61
2022-08-31T01:48:46.575Z,100265.71
2022-08-31T01:51:18.045Z,100267.59
2022-08-31T01:53:48.828Z,100264.98
2022-08-31T01:56:23.686Z,100261.47
2022-08-31T01:58:53.227Z,100270.20
2022-08-31T02:01:45.736Z,100265.69
2022-08-31T02:04:18.344Z,100265.94
2022-08-31T02:06:51.749Z,100267.87
2022-08-31T02:09:22.802Z,100263.97
2022-08-31T02:11:53.505Z,100259.77
2022-08-31T02:14:23.338Z,100254.95
2022-08-31T02:16:53.966Z,100257.15
2022-08-31T02:19:24.819Z,100260.11
2022-08-31T02:21:56.521Z,100252.84
2022-08-31T02:24:26.769Z,100247.00
2022-08-31T02:26:59.730Z,100245.36
2022-08-31T02:29:30.317Z,100247.33
2022-08-31T02:32:02.428Z,100244.88
2022-08-31T02:34:33.442Z,100252.11
2022-08-31T02:37:04.656Z,100247.07
2022-08-31T02:39:34.878Z,100248.09
2022-08-31T02:42:06.220Z,100247.66
2022-08-31T02:44:39.913Z,100248.88
2022-08-31T02:47:10.150Z,100254.02
2022-08-31T02:49:44.369Z,100253.91
2022-08-31T02:52:16.001Z,100252.66
2022-08-31T02:54:47.038Z,100251.75
2022-08-31T02:57:18.808Z,100257.72
2022-08-31T02:59:50.342Z,100259.02
2022-08-31T03:02:22.944Z,100254.23
2022-08-31T03:04:55.244Z,100253.34
2022-08-31T03:07:27.800Z,100249.14
2022-08-31T03:10:01.788Z,100244.19
2022-08-31T03:12:34.019Z,100239.73
2022-08-31T03:15:07.761Z,100247.72
2022-08-31T03:17:37.633Z,100248.98
2022-08-31T03:20:11.071Z,100256.38
2022-08-31T03:22:45.643Z,100249.36
2022-08-31T03:25:17.257Z,100257.09
2022-08-31T03:27:47.442Z,100251.54
2022-08-31T03:30:19.505Z,100258.77
2022-08-31T03:32:55.065Z,100260.36
2022-08-31T03:35:29.554Z,100256.70
2022-08-31T03:38:03.039Z,100262.20
2022-08-31T03:40:34.301Z,100264.09
2022-08-31T03:43:04.887Z,100267.66
2022-08-31T03:45:35.412Z,100261.61
2022-08-31T03:48:12.009Z,100258.80
2022-08-31T03:50:39.322Z,100258.80
2022-08-31T03:53:12.937Z,100261.27
2022-08-31T03:55:43.400Z,100265.62
2022-08-31T03:58:13.919Z,100268.65
2022-08-31T04:00:45.654Z,100273.35
2022-08-31T04:03:17.451Z,100268.40
2022-08-31T04:06:10.145Z,100269.24
2022-08-31T04:08:58.118Z,100270.08
2022-08-31T04:11:44.752Z,100267.31
2022-08-31T04:14:26.702Z,100267.95
2022-08-31T04:17:17.384Z,100261.66
2022-08-31T04:19:49.442Z,100264.52
2022-08-31T04:22:22.119Z,100269.81
2022-08-31T04:24:56.024Z,100271.54
2022-08-31T04:27:26.775Z,100269.70
2022-08-31T04:29:57.175Z,100263.70
2022-08-31T04:32:27.326Z,100274.95
2022-08-31T04:34:59.526Z,100275.08
2022-08-31T04:37:29.444Z,100273.27
2022-08-31T04:40:03.654Z,100279.45
2022-08-31T04:42:38.089Z,100275.91
2022-08-31T04:45:09.341Z,100274.61
2022-08-31T04:47:41.983Z,100282.13
2022-08-31T04:50:13.543Z,100283.05
2022-08-31T04:53:03.068Z,100274.21
2022-08-31T04:55:20.380Z,100279.84
2022-08-31T04:57:51.242Z,100283.50
2022-08-31T05:00:22.405Z,100277.19
2022-08-31T05:03:10.287Z,100277.80
2022-08-31T05:05:41.195Z,100278.75
2022-08-31T05:08:12.501Z,100279.88
2022-08-31T05:10:42.883Z,100284.09
2022-08-31T05:13:13.654Z,100284.97
2022-08-31T05:15:43.892Z,100286.97
2022-08-31T05:18:16.898Z,100287.85
2022-08-31T05:20:49.492Z,100283.50
2022-08-31T05:23:21.025Z,100274.91
2022-08-31T05:25:50.980Z,100283.83
2022-08-31T05:28:23.193Z,100284.70
2022-08-31T05:30:53.355Z,100282.80
2022-08-31T05:33:26.058Z,100284.80
2022-08-31T05:35:56.851Z,100279.57
2022-08-31T05:38:28.119Z,100280.99
2022-08-31T05:41:00.793Z,100286.88
2022-08-31T05:43:31.388Z,100284.97
2022-08-31T05:46:05.646Z,100278.89
2022-08-31T05:48:36.204Z,100282.55
2022-08-31T05:51:08.504Z,100283.16
2022-08-31T05:53:40.711Z,100275.98
2022-08-31T05:56:23.382Z,100279.72
2022-08-31T05:58:53.904Z,100277.84
2022-08-31T06:01:34.290Z,100277.91
2022-08-31T06:04:08.147Z,100281.31
2022-08-31T06:06:38.968Z,100280.53
2022-08-31T06:09:11.422Z,100280.87
2022-08-31T06:11:42.027Z,100288.95
2022-08-31T06:14:13.370Z,100281.19
2022-08-31T06:16:45.092Z,100284.55
2022-08-31T06:19:17.436Z,100285.97
2022-08-31T06:21:51.500Z,100285.16
2022-08-31T06:24:30.773Z,100277.41
2022-08-31T06:27:01.517Z,100273.55
2022-08-31T06:29:33.617Z,100275.00
2022-08-31T06:32:08.237Z,100287.27
2022-08-31T06:34:42.525Z,100282.62
2022-08-31T06:37:21.261Z,100287.11
2022-08-31T06:39:54.391Z,100282.14
2022-08-31T06:42:29.528Z,100293.11
2022-08-31T06:45:07.590Z,100293.11
2022-08-31T06:47:40.122Z,100291.22
2022-08-31T06:50:13.655Z,100294.88
2022-08-31T06:52:45.250Z,100294.08
2022-08-31T06:55:35.353Z,100286.58
2022-08-31T06:58:25.071Z,100284.66
2022-08-31T07:01:13.760Z,100288.33
2022-08-31T07:03:50.371Z,100281.46
2022-08-31T07:06:22.443Z,100288.02
2022-08-31T07:08:56.631Z,100292.89
2022-08-31T07:11:32.912Z,100288.39
2022-08-31T07:14:04.574Z,100289.41
2022-08-31T07:16:36.372Z,100279.70
2022-08-31T07:19:06.646Z,100284.16
2022-08-31T07:21:46.190Z,100285.56
2022-08-31T07:24:20.869Z,100279.14
2022-08-31T07:26:57.682Z,100291.42
2022-08-31T07:29:34.423Z,100290.31
2022-08-31T07:32:03.869Z,100287.23
2022-08-31T07:34:33.736Z,100293.38
2022-08-31T07:37:18.296Z,100289.19
2022-08-31T07:40:08.259Z,100285.56
2022-08-31T07:42:44.607Z,100279.12
2022-08-31T07:45:27.951Z,100292.30
2022-08-31T07:48:00.405Z,100284.20
2022-08-31T07:50:33.008Z,100285.88
2022-08-31T07:53:07.456Z,100287.00
2022-08-31T07:55:47.991Z,100288.95
2022-08-31T07:58:35.619Z,100285.31
2022-08-31T08:01:06.502Z,100281.09
2022-08-31T08:03:36.174Z,100278.21
2022-08-31T08:06:25.800Z,100278.15
2022-08-31T08:09:24.028Z,100279.08
2022-08-31T08:11:46.813Z,100274.99
2022-08-31T08:14:38.560Z,100274.52
2022-08-31T08:17:25.545Z,100274.44
2022-08-31T08:19:56.391Z,100267.00
2022-08-31T08:22:50.968Z,100268.28
2022-08-31T08:25:13.216Z,100256.69
2022-08-31T08:27:51.895Z,100268.93
2022-08-31T08:30:25.603Z,100255.72
2022-08-31T08:32:55.046Z,100264.53
2022-08-31T08:35:26.858Z,100256.98
2022-08-31T08:37:59.001Z,100258.22
2022-08-31T08:40:43.970Z,100261.52
2022-08-31T08:43:16.202Z,100257.84
2022-08-31T08:45:49.632Z,100248.67
2022-08-31T08:48:22.336Z,100244.16
2022-08-31T08:50:53.926Z,100238.66
2022-08-31T08:53:28.756Z,100245.45
2022-08-31T08:56:17.254Z,100250.48
2022-08-31T08:58:35.657Z,100248.17
2022-08-31T09:01:07.754Z,100237.48
2022-08-31T09:03:46.518Z,100240.44
2022-08-31T09:06:48.307Z,100235.72
2022-08-31T09:09:35.097Z,100232.03
2022-08-31T09:12:29.326Z,100243.56
2022-08-31T09:15:14.793Z,100243.98
2022-08-31T09:18:05.556Z,100239.83
2022-08-31T09:20:35.324Z,100236.98
2022-08-31T09:23:06.907Z,100229.66
2022-08-31T09:25:50.162Z,100247.81
2022-08-31T09:28:44.382Z,100248.95
2022-08-31T09:31:38.073Z,100245.09
2022-08-31T09:34:12.374Z,100243.69
2022-08-31T09:36:42.687Z,100246.02
2022-08-31T09:39:21.602Z,100241.22
2022-08-31T09:41:50.868Z,100234.78
2022-08-31T09:44:34.038Z,100232.01
2022-08-31T09:47:06.860Z,100240.34
2022-08-31T09:49:38.344Z,100229.11
2022-08-31T09:52:24.027Z,100239.78
2022-08-31T09:55:17.882Z,100230.00
2022-08-31T09:58:07.848Z,100229.00
2022-08-31T10:00:42.078Z,100231.28
2022-08-31T10:03:25.868Z,100234.90
2022-08-31T10:05:57.575Z,100236.89
2022-08-31T10:08:50.263Z,100231.30
2022-08-31T10:11:23.453Z,100230.19
2022-08-31T10:14:04.873Z,100230.75
2022-08-31T10:16:43.211Z,100225.42
2022-08-31T10:19:28.429Z,100220.67
2022-08-31T10:22:05.003Z,100231.55
2022-08-31T10:24:48.815Z,100226.19
2022-08-31T10:27:28.487Z,100221.66
2022-08-31T10:30:06.861Z,100216.83
2022-08-31T10:32:45.578Z,100220.12
2022-08-31T10:35:55.920Z,100213.33
2022-08-31T10:38:37.416Z,100213.58
2022-08-31T10:41:22.013Z,100227.56
2022-08-31T10:44:19.894Z,100219.48
2022-08-31T10:46:53.980Z,100219.77
2022-08-31T10:49:26.132Z,100217.56
2022-08-31T10:52:09.443Z,100211.98
2022-08-31T10:54:48.343Z,100209.16
2022-08-31T10:57:43.451Z,100202.94
2022-08-31T11:00:42.853Z,100203.75
2022-08-31T11:03:27.848Z,100201.45
2022-08-31T11:06:19.792Z,100206.47
2022-08-31T11:08:58.865Z,100206.81
2022-08-31T11:11:46.193Z,100212.33
2022-08-31T11:14:53.612Z,100215.25
2022-08-31T11:17:52.058Z,100217.87
2022-08-31T11:21:06.521Z,100208.94
2022-08-31T11:23:56.226Z,100215.39
2022-08-31T11:26:51.401Z,100217.61
2022-08-31T11:29:46.893Z,100209.75
2022-08-31T11:32:39.767Z,100206.72
2022-08-31T11:35:10.986Z,100205.59
2022-08-31T11:37:52.479Z,100212.53
2022-08-31T11:40:46.690Z,100208.05
2022-08-31T11:43:44.090Z,100210.05
2022-08-31T11:46:28.503Z,100202.19
2022-08-31T11:48:59.589Z,100201.92
2022-08-31T11:51:45.867Z,100208.08
2022-08-31T11:54:26.608Z,100201.44
2022-08-31T11:56:57.257Z,100199.52
2022-08-31T11:59:36.600Z,100196.67
2022-08-31T12:02:26.846Z,100196.06
2022-08-31T12:04:58.597Z,100180.92
2022-08-31T12:07:42.428Z,100178.36
2022-08-31T12:10:34.348Z,100176.14
2022-08-31T12:13:31.048Z,100177.52
2022-08-31T12:16:06.637Z,100167.69
2022-08-31T12:19:44.761Z,100168.23
2022-08-31T12:23:10.488Z,100180.83
2022-08-31T12:26:20.046Z,100179.20
2022-08-31T12:29:28.186Z,100181.48
2022-08-31T12:32:35.708Z,100173.91
2022-08-31T12:35:24.864Z,100173.61
2022-08-31T12:38:10.200Z,100169.11
2022-08-31T12:40:47.326Z,100173.91
2022-08-31T12:43:40.588Z,100176.41
2022-08-31T12:46:59.601Z,100176.11
2022-08-31T12:49:47.088Z,100177.81
2022-08-31T12:52:37.159Z,100176.97
2022-08-31T12:55:38.518Z,100183.41
2022-08-31T12:58:41.244Z,100176.41
2022-08-31T13:01:17.291Z,100173.06
2022-08-31T13:03:54.246Z,100178.67
2022-08-31T13:06:32.382Z,100178.36
2022-08-31T13:09:04.103Z,100177.53
2022-08-31T13:11:42.102Z,100173.33
2022-08-31T13:14:27.362Z,100178.67
2022-08-31T13:17:16.200Z,100184.52
2022-08-31T13:19:57.319Z,100179.75
2022-08-31T13:22:33.195Z,100181.42
2022-08-31T13:25:21.835Z,100177.81
2022-08-31T13:27:52.557Z,100181.47
2022-08-31T13:30:25.502Z,100188.75
2022-08-31T13:32:55.108Z,100183.48
2022-08-31T13:35:28.251Z,100184.89
2022-08-31T13:38:05.946Z,100188.52
2022-08-31T13:40:39.261Z,100184.05
2022-08-31T13:43:11.250Z,100186.00
2022-08-31T13:45:52.519Z,100194.67
2022-08-31T13:48:34.775Z,100196.34
2022-08-31T13:51:20.161Z,100192.73
2022-08-31T13:54:04.640Z,100192.48
2022-08-31T13:56:59.176Z,100200.58
2022-08-31T13:59:33.492Z,100207.58
2022-08-31T14:02:19.607Z,100198.64
2022-08-31T14:04:57.815Z,100203.42
2022-08-31T14:07:44.014Z,100204.28
2022-08-31T14:10:19.173Z,100199.52
2022-08-31T14:12:57.105Z,100204.28
2022-08-31T14:15:56.172Z,100201.25
2022-08-31T14:18:29.959Z,100201.84
2022-08-31T14:21:20.934Z,100196.26
2022-08-31T14:24:03.976Z,100196.53
2022-08-31T14:26:37.694Z,100192.33
2022-08-31T14:29:12.176Z,100199.60
2022-08-31T14:31:52.730Z,100193.15
2022-08-31T14:34:32.655Z,100188.66
2022-08-31T14:37:07.518Z,100194.26
2022-08-31T14:39:47.265Z,100193.13
2022-08-31T14:42:36.969Z,100189.48
2022-08-31T14:45:18.266Z,100191.14
2022-08-31T14:47:52.117Z,100193.11
2022-08-31T14:50:25.247Z,100191.98
2022-08-31T14:52:57.526Z,100193.06
2022-08-31T14:55:31.118Z,100189.17
2022-08-31T14:58:07.079Z,100191.12
2022-08-31T15:00:41.650Z,100185.82
2022-08-31T15:03:17.159Z,100190.06
2022-08-31T15:05:48.811Z,100189.24
2022-08-31T15:08:20.153Z,100183.95
2022-08-31T15:10:54.401Z,100185.94
2022-08-31T15:13:26.811Z,100188.17
2022-08-31T15:15:59.802Z,100185.66
2022-08-31T15:18:33.410Z,100184.27
2022-08-31T15:21:05.434Z,100171.11
2022-08-31T15:23:36.939Z,100177.81
2022-08-31T15:26:11.021Z,100176.44
2022-08-31T15:28:42.871Z,100177.88
2022-08-31T15:31:24.849Z,100177.88
2022-08-31T15:33:57.630Z,100179.25
2022-08-31T15:36:28.136Z,100177.58
2022-08-31T15:38:59.874Z,100175.95
2022-08-31T15:41:37.641Z,100170.11
2022-08-31T15:44:11.940Z,100171.26
2022-08-31T15:47:02.173Z,100181.34
2022-08-31T15:49:33.652Z,100177.16
2022-08-31T15:52:06.836Z,100176.63
2022-08-31T15:54:38.846Z,100175.50
2022-08-31T15:57:08.254Z,100173.86
2022-08-31T15:59:42.807Z,100175.83
2022-08-31T16:02:13.729Z,100179.23
2022-08-31T16:04:43.204Z,100181.78
2022-08-31T16:07:13.361Z,100177.89
2022-08-31T16:09:47.322Z,100168.95
2022-08-31T16:12:18.441Z,100174.28
2022-08-31T16:14:51.270Z,100174.84
2022-08-31T16:17:21.131Z,100172.06
2022-08-31T16:19:51.258Z,100175.17
2022-08-31T16:22:22.329Z,100181.62
2022-08-31T16:24:54.664Z,100181.92
2022-08-31T16:27:24.650Z,100179.98
2022-08-31T16:29:54.127Z,100181.37
2022-08-31T16:32:25.288Z,100188.89
2022-08-31T16:34:54.723Z,100180.53
2022-08-31T16:37:24.929Z,100185.01
2022-08-31T16:39:55.224Z,100190.88
2022-08-31T16:42:25.210Z,100191.17
2022-08-31T16:44:59.735Z,100184.47
2022-08-31T16:47:27.136Z,100191.45
2022-08-31T16:49:59.220Z,100190.91
2022-08-31T16:52:30.780Z,100192.02
2022-08-31T16:54:59.891Z,100197.89
2022-08-31T16:57:30.039Z,100199.56
2022-08-31T17:00:00.684Z,100199.57
2022-08-31T17:02:35.146Z,100202.09
2022-08-31T17:05:05.758Z,100204.05
2022-08-31T17:07:36.512Z,100204.33
2022-08-31T17:10:07.461Z,100210.75
2022-08-31T17:12:40.959Z,100214.94
2022-08-31T17:15:13.263Z,100218.01
2022-08-31T17:17:44.981Z,100222.75
2022-08-31T17:20:16.060Z,100220.52
2022-08-31T17:22:48.415Z,100225.78
2022-08-31T17:25:18.562Z,100222.99
2022-08-31T17:27:51.199Z,100225.50
2022-08-31T17:30:23.244Z,100231.33
2022-08-31T17:32:54.357Z,100240.25
2022-08-31T17:35:25.897Z,100236.61
2022-08-31T17:37:56.226Z,100238.55
2022-08-31T17:42:59.951Z,100235.47
2022-08-31T17:45:31.885Z,100232.95
2022-08-31T17:48:01.530Z,100232.38
2022-08-31T17:50:32.486Z,100242.41
2022-08-31T17:53:03.622Z,100247.41
2022-08-31T17:55:34.502Z,100246.01
2022-08-31T17:58:06.910Z,100251.30
2022-08-31T18:00:36.908Z,100251.85
2022-08-31T18:03:07.478Z,100247.38
2022-08-31T18:05:41.907Z,100249.30
2022-08-31T18:08:10.174Z,100243.70
2022-08-31T18:10:41.433Z,100245.94
2022-08-31T18:13:11.565Z,100249.84
2022-08-31T18:15:41.520Z,100247.05
2022-08-31T18:18:12.011Z,100248.16
2022-08-31T18:20:41.684Z,100250.10
2022-08-31T18:23:11.701Z,100251.75
2022-08-31T18:25:42.953Z,100253.41
2022-08-31T18:28:12.974Z,100256.19
2022-08-31T18:30:42.642Z,100252.00
2022-08-31T18:33:15.111Z,100257.80
2022-08-31T18:35:50.514Z,100253.58
2022-08-31T18:38:22.041Z,100254.95
2022-08-31T18:41:10.323Z,100254.94
2022-08-31T18:43:59.427Z,100263.28
2022-08-31T18:46:28.727Z,100257.69
2022-08-31T18:49:11.895Z,100261.30
2022-08-31T18:51:31.050Z,100266.02
2022-08-31T18:54:00.744Z,100262.38
2022-08-31T18:56:29.847Z,100263.77
2022-08-31T18:59:00.099Z,100257.34
2022-08-31T19:01:33.482Z,100257.89
2022-08-31T19:04:03.896Z,100261.52
2022-08-31T19:06:34.105Z,100262.60
2022-08-31T19:09:04.086Z,100255.31
2022-08-31T19:11:40.861Z,100257.52
2022-08-31T19:14:10.050Z,100261.13
2022-08-31T19:16:39.687Z,100258.90
2022-08-31T19:19:10.176Z,100265.86
2022-08-31T19:21:39.431Z,100262.50
2022-08-31T19:24:13.436Z,100259.16
2022-08-31T19:26:51.743Z,100263.87
2022-08-31T19:29:26.386Z,100271.95
2022-08-31T19:31:57.017Z,100269.97
2022-08-31T19:34:29.422Z,100264.94
2022-08-31T19:36:59.940Z,100269.06
2022-08-31T19:39:31.496Z,100271.00
2022-08-31T19:42:07.698Z,100274.31
2022-08-31T19:44:54.936Z,100275.40
2022-08-31T19:47:24.434Z,100274.80
2022-08-31T19:49:43.267Z,100280.30
2022-08-31T19:52:12.433Z,100285.84
2022-08-31T19:54:41.914Z,100297.21
2022-08-31T19:57:13.649Z,100298.00
2022-08-31T19:59:44.775Z,100300.19
2022-08-31T20:02:14.099Z,100302.66
2022-08-31T20:04:45.578Z,100303.15
2022-08-31T20:07:18.770Z,100299.23
2022-08-31T20:09:50.100Z,100303.94
2022-08-31T20:12:19.224Z,100306.98
2022-08-31T20:14:49.354Z,100307.51
2022-08-31T20:17:20.084Z,100307.77
2022-08-31T20:19:49.286Z,100308.30
2022-08-31T20:22:28.121Z,100306.36
2022-08-31T20:24:55.369Z,100313.02
2022-08-31T20:27:24.429Z,100310.23
2022-08-31T20:29:54.529Z,100317.74
2022-08-31T20:32:25.439Z,100316.61
2022-08-31T20:34:59.710Z,100308.82
2022-08-31T20:37:29.516Z,100317.16
2022-08-31T20:39:59.650Z,100311.05
2022-08-31T20:42:29.558Z,100319.13
2022-08-31T20:44:59.137Z,100316.64
2022-08-31T20:47:47.718Z,100316.93
2022-08-31T20:50:17.329Z,100313.02
2022-08-31T20:52:46.575Z,100312.18
2022-08-31T20:55:16.675Z,100310.50
2022-08-31T20:57:46.697Z,100301.87
2022-08-31T21:00:18.596Z,100304.36
2022-08-31T21:02:49.871Z,100305.20
2022-08-31T21:05:38.342Z,100304.91
2022-08-31T21:07:52.369Z,100307.95
2022-08-31T21:10:36.230Z,100309.05
2022-08-31T21:13:00.190Z,100306.25
2022-08-31T21:15:30.264Z,100311.23
2022-08-31T21:18:02.259Z,100309.52
2022-08-31T21:20:33.536Z,100313.66
2022-08-31T21:23:02.758Z,100314.77
2022-08-31T21:25:33.442Z,100312.25
2022-08-31T21:28:03.964Z,100311.12
2022-08-31T21:30:34.234Z,100311.92
2022-08-31T21:33:05.248Z,100307.70
2022-08-31T21:35:34.874Z,100309.06
2022-08-31T21:38:06.827Z,100307.06
2022-08-31T21:40:36.773Z,100298.66
2022-08-31T21:43:07.314Z,100304.64
2022-08-31T21:45:37.184Z,100312.85
2022-08-31T21:48:07.463Z,100312.50
2022-08-31T21:50:37.929Z,100304.94
2022-08-31T21:53:08.399Z,100299.86
2022-08-31T21:55:38.762Z,100312.03
2022-08-31T21:58:07.884Z,100315.55
2022-08-31T22:00:38.736Z,100309.62
2022-08-31T22:03:08.997Z,100309.55
2022-08-31T22:05:44.784Z,100303.97
2022-08-31T22:08:14.907Z,100305.02
2022-08-31T22:10:44.605Z,100305.24
2022-08-31T22:13:16.901Z,100309.08
2022-08-31T22:15:46.823Z,100309.33
2022-08-31T22:18:59.109Z,100311.16
2022-08-31T22:20:49.689Z,100309.95
2022-08-31T22:23:19.564Z,100310.45
2022-08-31T22:25:49.029Z,100309.28
2022-08-31T22:28:20.021Z,100312.86
2022-08-31T22:30:50.661Z,100302.26
2022-08-31T22:33:20.985Z,100301.42
2022-08-31T22:35:51.363Z,100300.28
2022-08-31T22:38:21.749Z,100303.53
2022-08-31T22:40:53.191Z,100299.58
2022-08-31T22:43:22.623Z,100307.28
2022-08-31T22:45:51.784Z,100299.71
2022-08-31T22:48:22.308Z,100306.27
2022-08-31T22:50:51.473Z,100307.06
2022-08-31T22:53:21.664Z,100302.86
2022-08-31T22:55:52.853Z,100298.36
2022-08-31T22:58:22.190Z,100293.02
2022-08-31T23:00:51.698Z,100296.00
2022-08-31T23:03:22.192Z,100294.07
2022-08-31T23:05:53.781Z,100292.64
2022-08-31T23:08:23.772Z,100297.18
2022-08-31T23:10:54.207Z,100286.88
2022-08-31T23:13:25.177Z,100292.42
2022-08-31T23:15:54.269Z,100298.52
2022-08-31T23:18:23.561Z,100291.54
2022-08-31T23:20:54.641Z,100300.11
2022-08-31T23:23:24.238Z,100298.18
2022-08-31T23:25:56.619Z,100297.59
2022-08-31T23:28:26.098Z,100303.68
2022-08-31T23:30:55.418Z,100300.36
2022-08-31T23:33:26.548Z,100303.43
2022-08-31T23:35:56.314Z,100300.61
2022-08-31T23:38:27.345Z,100299.47
2022-08-31T23:40:57.876Z,100305.31
2022-08-31T23:43:28.677Z,100306.41
2022-08-31T23:46:01.837Z,100300.86
2022-08-31T23:48:31.352Z,100301.95
2022-08-31T23:51:02.066Z,100310.02
2022-08-31T23:53:33.086Z,100313.63
2022-08-31T23:56:10.747Z,100308.34
2022-08-31T23:58:39.918Z,100307.20
